Wetterdaten: Woche 24.05.04 - 30.05.04 (KW22)
Datum Zeit Temperatur Luftfeuchte Luftdruck Regenmenge Wind Richtung Taupunkt Windchill
24.05.2004 00:00 6.1 C 75 % 1026.5 hPa 0.0 l/m 0.4 km/h (0 Bft) NO 1.9 C 6.1 C
24.05.2004 01:00 4.7 C 84 % 1026.7 hPa 0.0 l/m 0.1 km/h (0 Bft) N 2.2 C 4.7 C
24.05.2004 02:00 3.5 C 89 % 1026.9 hPa 0.0 l/m 2.2 km/h (1 Bft) NO 1.8 C 3.2 C
24.05.2004 03:00 3.1 C 94 % 1026.6 hPa 0.0 l/m 0.0 km/h (0 Bft) N 2.2 C 3.1 C
24.05.2004 04:00 2.2 C 96 % 1026.1 hPa 0.0 l/m 1.2 km/h (1 Bft) O 1.6 C 1.9 C
24.05.2004 05:00 1.6 C 98 % 1026.1 hPa 0.0 l/m 1.7 km/h (1 Bft) O 1.3 C 1.3 C
24.05.2004 06:00 2.0 C 96 % 1026.1 hPa 0.0 l/m 0.2 km/h (0 Bft) O-SO 1.4 C 2.0 C
24.05.2004 07:00 4.6 C 79 % 1025.7 hPa 0.0 l/m 1.0 km/h (0 Bft) NW 1.2 C 4.4 C
24.05.2004 08:00 7.1 C 64 % 1025.3 hPa 0.0 l/m 2.0 km/h (1 Bft) O-SO 0.8 C 6.9 C
24.05.2004 09:00 10.2 C 56 % 1024.9 hPa 0.0 l/m 7.3 km/h (2 Bft) O-SO 1.8 C 9.8 C
24.05.2004 10:00 12.3 C 44 % 1024.6 hPa 0.0 l/m 9.9 km/h (2 Bft) O 0.4 C 12.3 C
24.05.2004 11:00 14.2 C 38 % 1024.4 hPa 0.0 l/m 13.1 km/h (3 Bft) O-SO 0.1 C 14.2 C
24.05.2004 12:00 15.2 C 33 % 1023.4 hPa 0.0 l/m 9.6 km/h (2 Bft) O-SO -0.8 C 15.2 C
24.05.2004 13:00 16.9 C 31 % 1023.0 hPa 0.0 l/m 8.7 km/h (2 Bft) O-SO -0.4 C 16.9 C
24.05.2004 14:00 18.0 C 28 % 1022.7 hPa 0.0 l/m 10.8 km/h (2 Bft) O-SO -0.7 C 18.0 C
24.05.2004 15:00 18.5 C 27 % 1021.9 hPa 0.0 l/m 12.9 km/h (3 Bft) O-SO -0.8 C 18.5 C
24.05.2004 16:00 19.1 C 27 % 1021.6 hPa 0.0 l/m 8.6 km/h (2 Bft) O-SO -0.3 C 19.1 C
24.05.2004 17:00 18.8 C 28 % 1021.7 hPa 0.0 l/m 6.3 km/h (2 Bft) O-SO -0.2 C 18.8 C
24.05.2004 18:00 18.5 C 29 % 1021.7 hPa 0.0 l/m 4.3 km/h (1 Bft) O-SO 0.2 C 18.5 C
24.05.2004 19:00 17.4 C 34 % 1021.8 hPa 0.0 l/m 5.4 km/h (1 Bft) O-SO 1.2 C 17.4 C
24.05.2004 20:00 15.1 C 44 % 1022.2 hPa 0.0 l/m 6.2 km/h (2 Bft) O-SO 2.9 C 15.1 C
24.05.2004 21:00 11.2 C 61 % 1022.7 hPa 0.0 l/m 2.1 km/h (1 Bft) O-SO 3.9 C 11.1 C
24.05.2004 22:00 8.9 C 72 % 1023.5 hPa 0.0 l/m 0.3 km/h (0 Bft) N 4.1 C 8.9 C
24.05.2004 23:00 7.3 C 82 % 1024.3 hPa 0.0 l/m 0.3 km/h (0 Bft) O-SO 4.3 C 7.3 C
25.05.2004 00:00 6.8 C 86 % 1024.3 hPa 0.0 l/m 0.0 km/h (0 Bft) N 4.6 C 6.8 C
25.05.2004 01:00 6.0 C 86 % 1024.5 hPa 0.0 l/m 0.1 km/h (0 Bft) O-NO 3.8 C 6.0 C
25.05.2004 02:00 5.3 C 89 % 1024.0 hPa 0.0 l/m 0.1 km/h (0 Bft) N 3.6 C 5.3 C
25.05.2004 03:00 4.7 C 93 % 1023.6 hPa 0.0 l/m 0.1 km/h (0 Bft) O 3.7 C 4.7 C
25.05.2004 04:00 4.2 C 94 % 1023.7 hPa 0.0 l/m 0.5 km/h (0 Bft) O 3.4 C 4.2 C
25.05.2004 05:00 4.0 C 97 % 1023.7 hPa 0.0 l/m 0.4 km/h (0 Bft) O 3.6 C 4.0 C
25.05.2004 06:00 3.7 C 97 % 1023.7 hPa 0.0 l/m 0.2 km/h (0 Bft) O 3.4 C 3.7 C
25.05.2004 07:00 5.7 C 91 % 1023.5 hPa 0.0 l/m 0.2 km/h (0 Bft) N-NO 4.3 C 5.7 C
25.05.2004 08:00 8.2 C 75 % 1023.1 hPa 0.0 l/m 0.7 km/h (0 Bft) W-NW 4.0 C 8.1 C
25.05.2004 09:00 11.4 C 57 % 1022.7 hPa 0.0 l/m 2.1 km/h (1 Bft) NW 3.2 C 11.4 C
25.05.2004 10:00 14.2 C 45 % 1022.1 hPa 0.0 l/m 3.1 km/h (1 Bft) NW 2.4 C 14.2 C
25.05.2004 11:00 16.4 C 39 % 1020.9 hPa 0.0 l/m 1.8 km/h (1 Bft) NW 2.3 C 16.4 C
25.05.2004 12:00 18.6 C 32 % 1020.3 hPa 0.0 l/m 3.2 km/h (1 Bft) O-SO 1.4 C 18.6 C
25.05.2004 13:00 20.2 C 28 % 1019.4 hPa 0.0 l/m 4.6 km/h (1 Bft) O-SO 1.3 C 20.2 C
25.05.2004 14:00 22.1 C 26 % 1018.4 hPa 0.0 l/m 4.6 km/h (1 Bft) O-SO 1.8 C 22.1 C
25.05.2004 15:00 23.0 C 26 % 1017.4 hPa 0.0 l/m 2.7 km/h (1 Bft) O-SO 2.4 C 23.0 C
25.05.2004 16:00 23.1 C 27 % 1016.7 hPa 0.0 l/m 3.3 km/h (1 Bft) NW 3.3 C 23.1 C
25.05.2004 17:00 22.9 C 28 % 1016.1 hPa 0.0 l/m 2.1 km/h (1 Bft) N-NW 3.3 C 22.9 C
25.05.2004 18:00 22.3 C 29 % 1016.0 hPa 0.0 l/m 0.2 km/h (0 Bft) N 3.2 C 22.3 C
25.05.2004 19:00 21.3 C 30 % 1016.2 hPa 0.0 l/m 0.0 km/h (0 Bft) N 3.1 C 21.3 C
25.05.2004 20:00 18.5 C 44 % 1016.5 hPa 0.0 l/m 0.2 km/h (0 Bft) N 5.8 C 18.5 C
25.05.2004 21:00 14.2 C 61 % 1017.1 hPa 0.0 l/m 5.3 km/h (1 Bft) O-SO 6.8 C 14.2 C
25.05.2004 22:00 11.8 C 73 % 1018.2 hPa 0.0 l/m 1.6 km/h (1 Bft) O-SO 7.1 C 11.8 C
25.05.2004 23:00 10.4 C 79 % 1018.6 hPa 0.0 l/m 0.3 km/h (0 Bft) O 6.9 C 10.4 C
26.05.2004 00:00 9.7 C 81 % 1018.7 hPa 0.0 l/m 0.9 km/h (0 Bft) O-SO 6.7 C 9.7 C
26.05.2004 01:00 9.3 C 82 % 1018.8 hPa 0.0 l/m 3.4 km/h (1 Bft) O-SO 6.4 C 9.1 C
26.05.2004 02:00 8.4 C 87 % 1018.4 hPa 0.0 l/m 0.0 km/h (0 Bft) N 6.4 C 8.4 C
26.05.2004 03:00 7.6 C 91 % 1018.0 hPa 0.0 l/m 0.2 km/h (0 Bft) O-SO 6.3 C 7.6 C
26.05.2004 04:00 7.0 C 94 % 1018.1 hPa 0.0 l/m 0.1 km/h (0 Bft) O-SO 6.1 C 7.0 C
26.05.2004 05:00 6.7 C 97 % 1018.1 hPa 0.0 l/m 0.9 km/h (0 Bft) O-SO 6.2 C 6.7 C
26.05.2004 06:00 7.0 C 97 % 1018.1 hPa 0.0 l/m 0.2 km/h (0 Bft) N 6.5 C 7.0 C
26.05.2004 07:00 8.3 C 93 % 1018.9 hPa 0.0 l/m 0.0 km/h (0 Bft) N 7.3 C 8.3 C
26.05.2004 08:00 10.3 C 80 % 1018.7 hPa 0.0 l/m 0.0 km/h (0 Bft) N 7.0 C 10.3 C
26.05.2004 09:00 12.9 C 67 % 1018.3 hPa 0.0 l/m 1.3 km/h (1 Bft) NW 6.8 C 12.9 C
26.05.2004 10:00 15.9 C 55 % 1017.1 hPa 0.0 l/m 1.6 km/h (1 Bft) O-SO 6.9 C 15.9 C
26.05.2004 11:00 18.7 C 47 % 1016.5 hPa 0.0 l/m 4.0 km/h (1 Bft) O-SO 7.2 C 18.7 C
26.05.2004 12:00 20.8 C 37 % 1016.2 hPa 0.0 l/m 4.0 km/h (1 Bft) NW 5.4 C 20.8 C
26.05.2004 13:00 22.5 C 26 % 1015.2 hPa 0.0 l/m 16.0 km/h (3 Bft) NW 1.9 C 22.5 C
26.05.2004 14:00 23.4 C 25 % 1014.8 hPa 0.0 l/m 12.1 km/h (2 Bft) NW 2.4 C 23.4 C
26.05.2004 15:00 23.8 C 26 % 1014.8 hPa 0.0 l/m 14.7 km/h (3 Bft) NW 3.0 C 23.8 C
26.05.2004 16:00 22.9 C 25 % 1014.9 hPa 0.0 l/m 18.2 km/h (3 Bft) NW 1.9 C 22.9 C
26.05.2004 17:00 22.9 C 26 % 1014.8 hPa 0.0 l/m 3.6 km/h (1 Bft) NW 2.5 C 22.9 C
26.05.2004 18:00 24.3 C 27 % 1013.7 hPa 0.0 l/m 4.2 km/h (1 Bft) SO 4.0 C 24.3 C
26.05.2004 19:00 24.3 C 27 % 1013.7 hPa 0.0 l/m 8.0 km/h (2 Bft) NW 3.9 C 24.3 C
26.05.2004 20:00 21.9 C 33 % 1014.6 hPa 0.0 l/m 7.6 km/h (2 Bft) NW 5.0 C 21.9 C
26.05.2004 21:00 18.5 C 44 % 1015.9 hPa 0.0 l/m 2.9 km/h (1 Bft) O-SO 6.0 C 18.5 C
26.05.2004 22:00 16.7 C 53 % 1017.0 hPa 0.0 l/m 0.9 km/h (0 Bft) O-SO 7.1 C 16.7 C
26.05.2004 23:00 16.4 C 51 % 1017.8 hPa 0.0 l/m 3.2 km/h (1 Bft) NO 6.1 C 16.4 C
27.05.2004 00:00 15.5 C 53 % 1018.0 hPa 0.0 l/m 2.9 km/h (1 Bft) O-NO 6.0 C 15.5 C
27.05.2004 01:00 14.3 C 58 % 1018.1 hPa 0.0 l/m 0.9 km/h (0 Bft) O 6.1 C 14.3 C
27.05.2004 02:00 12.7 C 65 % 1018.4 hPa 0.0 l/m 0.3 km/h (0 Bft) O-SO 6.4 C 12.7 C
27.05.2004 03:00 13.2 C 61 % 1018.4 hPa 0.0 l/m 1.0 km/h (0 Bft) O 5.9 C 13.2 C
27.05.2004 04:00 12.3 C 63 % 1019.4 hPa 0.0 l/m 0.4 km/h (0 Bft) N-NO 5.4 C 12.3 C
27.05.2004 05:00 11.8 C 66 % 1019.5 hPa 0.0 l/m 0.3 km/h (0 Bft) W-NW 5.6 C 11.8 C
27.05.2004 06:00 11.9 C 74 % 1019.5 hPa 0.0 l/m 0.1 km/h (0 Bft) N 7.5 C 11.9 C
27.05.2004 07:00 12.3 C 74 % 1020.4 hPa 0.0 l/m 0.1 km/h (0 Bft) N-NW 7.7 C 12.3 C
27.05.2004 08:00 11.9 C 81 % 1020.5 hPa 0.0 l/m 1.0 km/h (0 Bft) NW 8.6 C 11.9 C
27.05.2004 09:00 12.8 C 75 % 1020.4 hPa 0.0 l/m 0.8 km/h (0 Bft) W-NW 8.5 C 12.8 C
27.05.2004 10:00 14.6 C 67 % 1020.1 hPa 0.0 l/m 1.6 km/h (1 Bft) NW 8.5 C 14.6 C
27.05.2004 11:00 16.0 C 60 % 1020.0 hPa 0.0 l/m 4.3 km/h (1 Bft) NW 8.2 C 16.0 C
27.05.2004 12:00 18.0 C 55 % 1019.7 hPa 0.0 l/m 4.7 km/h (1 Bft) O 8.6 C 18.0 C
27.05.2004 13:00 17.1 C 58 % 1019.8 hPa 0.0 l/m 0.7 km/h (0 Bft) O-SO 8.7 C 17.1 C
27.05.2004 14:00 16.4 C 67 % 1019.9 hPa 0.0 l/m 0.0 km/h (0 Bft) N 10.2 C 16.4 C
27.05.2004 15:00 16.7 C 65 % 1019.9 hPa 0.0 l/m 0.3 km/h (0 Bft) S 10.1 C 16.7 C
27.05.2004 16:00 17.0 C 61 % 1019.0 hPa 0.0 l/m 0.1 km/h (0 Bft) N 9.4 C 17.0 C
27.05.2004 17:00 15.1 C 76 % 1019.1 hPa 1.0 l/m 1.9 km/h (1 Bft) N 10.7 C 15.1 C
27.05.2004 18:00 13.5 C 95 % 1020.3 hPa 2.7 l/m 0.7 km/h (0 Bft) O-SO 12.6 C 13.5 C
27.05.2004 19:00 13.4 C 99 % 1020.3 hPa 0.3 l/m 0.8 km/h (0 Bft) O-SO 13.2 C 13.4 C
27.05.2004 20:00 13.3 C 100 % 1020.3 hPa 0.0 l/m 0.9 km/h (0 Bft) O-SO 13.2 C 13.3 C
27.05.2004 21:00 13.1 C 100 % 1020.8 hPa 0.0 l/m 0.0 km/h (0 Bft) N 13.1 C 13.1 C
27.05.2004 22:00 12.9 C 100 % 1021.4 hPa 0.0 l/m 0.0 km/h (0 Bft) N 12.9 C 12.9 C
27.05.2004 23:00 12.5 C 100 % 1021.5 hPa 0.0 l/m 0.0 km/h (0 Bft) N 12.5 C 12.5 C
28.05.2004 00:00 12.5 C 100 % 1021.5 hPa 0.0 l/m 0.0 km/h (0 Bft) N 12.5 C 12.5 C
28.05.2004 01:00 10.9 C 100 % 1021.7 hPa 0.0 l/m 0.2 km/h (0 Bft) N-NO 10.9 C 10.9 C
28.05.2004 02:00 10.0 C 97 % 1022.3 hPa 0.0 l/m 1.5 km/h (1 Bft) O-SO 9.5 C 9.9 C
28.05.2004 03:00 9.2 C 100 % 1023.0 hPa 0.0 l/m 0.4 km/h (0 Bft) N 9.2 C 9.2 C
28.05.2004 04:00 8.6 C 100 % 1023.0 hPa 0.0 l/m 0.0 km/h (0 Bft) N 8.6 C 8.6 C
28.05.2004 05:00 8.7 C 100 % 1023.0 hPa 0.0 l/m 0.0 km/h (0 Bft) N 8.7 C 8.7 C
28.05.2004 06:00 9.2 C 100 % 1023.9 hPa 0.0 l/m 0.0 km/h (0 Bft) N 9.1 C 9.2 C
28.05.2004 07:00 9.6 C 94 % 1024.0 hPa 0.0 l/m 0.0 km/h (0 Bft) N 8.7 C 9.6 C
28.05.2004 08:00 10.7 C 76 % 1023.8 hPa 0.0 l/m 0.2 km/h (0 Bft) N-NW 6.6 C 10.7 C
28.05.2004 09:00 12.3 C 71 % 1023.6 hPa 0.0 l/m 1.9 km/h (1 Bft) O-SO 7.2 C 12.3 C
28.05.2004 10:00 14.1 C 68 % 1023.3 hPa 0.0 l/m 3.7 km/h (1 Bft) O 8.3 C 14.1 C
28.05.2004 11:00 16.4 C 62 % 1023.0 hPa 0.0 l/m 9.8 km/h (2 Bft) O-SO 9.0 C 16.4 C
28.05.2004 12:00 17.9 C 49 % 1022.8 hPa 0.0 l/m 15.7 km/h (3 Bft) O-SO 7.1 C 17.9 C
28.05.2004 13:00 17.5 C 47 % 1022.9 hPa 0.0 l/m 3.6 km/h (1 Bft) O-SO 6.0 C 17.5 C
28.05.2004 14:00 18.1 C 49 % 1022.8 hPa 0.0 l/m 2.9 km/h (1 Bft) O-SO 7.0 C 18.1 C
28.05.2004 15:00 19.5 C 43 % 1022.6 hPa 0.0 l/m 8.1 km/h (2 Bft) O-SO 6.7 C 19.5 C
28.05.2004 16:00 20.7 C 36 % 1022.5 hPa 0.0 l/m 4.7 km/h (1 Bft) O-NO 5.0 C 20.7 C
28.05.2004 17:00 21.0 C 33 % 1022.4 hPa 0.0 l/m 5.8 km/h (2 Bft) O 4.0 C 21.0 C
28.05.2004 18:00 20.5 C 34 % 1021.9 hPa 0.0 l/m 4.4 km/h (1 Bft) O 4.2 C 20.5 C
28.05.2004 19:00 18.8 C 40 % 1022.4 hPa 0.0 l/m 5.4 km/h (1 Bft) O-SO 5.1 C 18.8 C
28.05.2004 20:00 16.6 C 47 % 1023.0 hPa 0.0 l/m 1.1 km/h (0 Bft) O-SO 5.2 C 16.6 C
28.05.2004 21:00 12.7 C 63 % 1023.8 hPa 0.0 l/m 1.8 km/h (1 Bft) O-SO 5.8 C 12.7 C
28.05.2004 22:00 11.1 C 73 % 1024.8 hPa 0.0 l/m 0.0 km/h (0 Bft) N 6.4 C 11.1 C
28.05.2004 23:00 9.8 C 78 % 1025.0 hPa 0.0 l/m 0.1 km/h (0 Bft) N 6.1 C 9.8 C
29.05.2004 00:00 8.8 C 84 % 1025.1 hPa 0.0 l/m 0.0 km/h (0 Bft) N 6.3 C 8.8 C
29.05.2004 01:00 8.1 C 86 % 1025.2 hPa 0.0 l/m 0.0 km/h (0 Bft) N 6.0 C 8.1 C
29.05.2004 02:00 7.4 C 89 % 1025.3 hPa 0.0 l/m 0.8 km/h (0 Bft) O-SO 5.7 C 7.4 C
29.05.2004 03:00 7.0 C 93 % 1025.4 hPa 0.0 l/m 1.6 km/h (1 Bft) O-SO 5.8 C 6.8 C
29.05.2004 04:00 6.2 C 96 % 1025.5 hPa 0.0 l/m 0.9 km/h (0 Bft) O-SO 5.5 C 6.1 C
29.05.2004 05:00 5.5 C 98 % 1025.6 hPa 0.0 l/m 0.3 km/h (0 Bft) O-SO 5.2 C 5.4 C
29.05.2004 06:00 5.7 C 99 % 1026.5 hPa 0.0 l/m 0.4 km/h (0 Bft) O 5.5 C 5.6 C
29.05.2004 07:00 7.5 C 95 % 1026.3 hPa 0.0 l/m 0.0 km/h (0 Bft) N 6.7 C 7.5 C
29.05.2004 08:00 9.9 C 81 % 1026.0 hPa 0.0 l/m 0.7 km/h (0 Bft) O 6.7 C 9.9 C
29.05.2004 09:00 13.4 C 63 % 1025.5 hPa 0.0 l/m 7.2 km/h (2 Bft) O-SO 6.5 C 13.4 C
29.05.2004 10:00 16.0 C 57 % 1025.0 hPa 0.0 l/m 8.2 km/h (2 Bft) O-SO 7.4 C 16.0 C
29.05.2004 11:00 18.1 C 48 % 1023.8 hPa 0.0 l/m 20.1 km/h (4 Bft) O-SO 6.9 C 18.1 C
29.05.2004 12:00 19.3 C 40 % 1023.7 hPa 0.0 l/m 23.7 km/h (4 Bft) O-SO 5.5 C 19.3 C
29.05.2004 13:00 20.5 C 34 % 1023.5 hPa 0.0 l/m 25.8 km/h (4 Bft) O-SO 4.2 C 20.5 C
29.05.2004 14:00 21.5 C 31 % 1022.4 hPa 0.0 l/m 19.1 km/h (3 Bft) O-SO 3.6 C 21.5 C
29.05.2004 15:00 22.1 C 29 % 1022.3 hPa 0.0 l/m 16.4 km/h (3 Bft) O-SO 3.2 C 22.1 C
29.05.2004 16:00 22.1 C 30 % 1022.3 hPa 0.0 l/m 16.6 km/h (3 Bft) O-SO 3.6 C 22.1 C
29.05.2004 17:00 22.0 C 30 % 1021.3 hPa 0.0 l/m 15.0 km/h (3 Bft) O-SO 3.4 C 22.0 C
29.05.2004 18:00 21.3 C 30 % 1021.3 hPa 0.0 l/m 12.5 km/h (3 Bft) O-SO 2.8 C 21.3 C
29.05.2004 19:00 20.2 C 33 % 1021.5 hPa 0.0 l/m 6.6 km/h (2 Bft) O-SO 3.5 C 20.2 C
29.05.2004 20:00 18.6 C 38 % 1022.2 hPa 0.0 l/m 1.1 km/h (1 Bft) O 4.0 C 18.6 C
29.05.2004 21:00 14.4 C 52 % 1023.3 hPa 0.0 l/m 2.1 km/h (1 Bft) O-SO 4.4 C 14.4 C
29.05.2004 22:00 12.6 C 57 % 1023.5 hPa 0.0 l/m 2.1 km/h (1 Bft) O 4.4 C 12.6 C
29.05.2004 23:00 11.0 C 70 % 1023.8 hPa 0.0 l/m 0.0 km/h (0 Bft) N 5.7 C 11.0 C
30.05.2004 00:00 9.7 C 78 % 1023.9 hPa 0.0 l/m 0.0 km/h (0 Bft) N 6.1 C 9.7 C
30.05.2004 01:00 8.9 C 77 % 1024.1 hPa 0.0 l/m 2.3 km/h (1 Bft) SO 5.1 C 8.6 C
30.05.2004 02:00 7.9 C 84 % 1024.2 hPa 0.0 l/m 2.7 km/h (1 Bft) O-SO 5.3 C 7.6 C
30.05.2004 03:00 7.1 C 86 % 1024.3 hPa 0.0 l/m 1.9 km/h (1 Bft) O-SO 4.9 C 6.8 C
30.05.2004 04:00 6.4 C 93 % 1024.4 hPa 0.0 l/m 2.0 km/h (1 Bft) O-SO 5.3 C 6.0 C
30.05.2004 05:00 5.9 C 95 % 1024.5 hPa 0.0 l/m 0.0 km/h (0 Bft) N 5.1 C 5.9 C
30.05.2004 06:00 6.7 C 94 % 1024.4 hPa 0.0 l/m 0.0 km/h (0 Bft) O-SO 5.8 C 6.7 C
30.05.2004 07:00 8.7 C 86 % 1024.1 hPa 0.0 l/m 0.1 km/h (0 Bft) N 6.4 C 8.7 C
30.05.2004 08:00 10.9 C 73 % 1023.8 hPa 0.0 l/m 0.3 km/h (0 Bft) N-NW 6.2 C 10.9 C
30.05.2004 09:00 13.3 C 62 % 1023.4 hPa 0.0 l/m 0.9 km/h (0 Bft) NW 6.1 C 13.3 C
30.05.2004 10:00 15.7 C 52 % 1022.9 hPa 0.0 l/m 2.5 km/h (1 Bft) NW 5.9 C 15.7 C
30.05.2004 11:00 18.1 C 49 % 1021.8 hPa 0.0 l/m 3.1 km/h (1 Bft) O-SO 7.3 C 18.1 C
30.05.2004 12:00 20.8 C 41 % 1020.8 hPa 0.0 l/m 4.5 km/h (1 Bft) O-SO 7.0 C 20.8 C
30.05.2004 13:00 22.7 C 33 % 1020.1 hPa 0.0 l/m 1.1 km/h (1 Bft) N-NO 5.4 C 22.7 C
30.05.2004 14:00 23.9 C 26 % 1019.1 hPa 0.0 l/m 11.4 km/h (2 Bft) NW 3.0 C 23.9 C
30.05.2004 15:00 25.0 C 25 % 1018.8 hPa 0.0 l/m 8.5 km/h (2 Bft) NW 3.6 C 25.0 C
30.05.2004 16:00 26.3 C 25 % 1017.9 hPa 0.0 l/m 8.0 km/h (2 Bft) NW 4.8 C 26.3 C
30.05.2004 17:00 25.6 C 26 % 1017.7 hPa 0.0 l/m 11.0 km/h (2 Bft) NW 4.5 C 25.6 C
30.05.2004 18:00 25.3 C 30 % 1017.1 hPa 0.0 l/m 5.3 km/h (1 Bft) NW 6.2 C 25.3 C
30.05.2004 19:00 24.3 C 33 % 1016.8 hPa 0.0 l/m 5.0 km/h (1 Bft) NW 6.9 C 24.3 C
30.05.2004 20:00 21.1 C 44 % 1017.5 hPa 0.0 l/m 0.8 km/h (0 Bft) NW 8.2 C 21.1 C
30.05.2004 21:00 20.2 C 39 % 1018.4 hPa 0.0 l/m 23.3 km/h (4 Bft) NW 5.9 C 20.2 C
30.05.2004 22:00 19.9 C 42 % 1018.4 hPa 0.0 l/m 26.8 km/h (4 Bft) NW 6.6 C 19.9 C
30.05.2004 23:00 18.6 C 46 % 1019.4 hPa 0.0 l/m 24.9 km/h (4 Bft) NW 6.8 C 18.6 C
Min-Datum _ 24.05.04 24.05.04 26.05.04 - 24.05.04 - 24.05.04 24.05.04
_ Min-Zeit 05:23 14:35 18:11 - 00:11 - 13:56 05:23
Minimum _ 1.2 C 25 % 1013.6 hPa - 0.0 km/h (0 Bft) - -3.2 C -0.4 C
Max-Datum _ 30.05.04 27.05.04 24.05.04 27.05.04 30.05.04 - 27.05.04 30.05.04
_ Max-Zeit 16:26 20:17 03:29 17:00 23:05 - 19:20 16:26
Maximum _ 26.8 C 100 % 1027.0 hPa 2.7 l/m 44.7 km/h
NW (6 Bft)
- 13.4 C 26.8 C
Durchschnitt _ 14.1 C 62 % 1021.3 hPa #4.0 l/m 4.1 km/h (1 Bft) O-SO 5.4 C 14.0 C

Durchschnitt Minimum Temp.13.0 C
Durchschnitt Maximum Temp.15.1 C
© Kaiko 2004